createdAt,value
2023-03-26T00:01:15.553Z,99565.19
2023-03-26T00:03:45.117Z,99566.06
2023-03-26T00:06:15.631Z,99556.63
2023-03-26T00:08:47.503Z,99562.59
2023-03-26T00:11:16.264Z,99545.47
2023-03-26T00:13:43.984Z,99554.06
2023-03-26T00:16:13.784Z,99566.03
2023-03-26T00:18:44.236Z,99577.88
2023-03-26T00:21:14.269Z,99565.22
2023-03-26T00:23:41.586Z,99560.00
2023-03-26T00:26:10.647Z,99548.00
2023-03-26T00:28:42.017Z,99548.69
2023-03-26T00:31:12.294Z,99553.97
2023-03-26T00:33:40.732Z,99559.09
2023-03-26T00:36:11.871Z,99574.25
2023-03-26T00:38:41.618Z,99567.44
2023-03-26T00:41:17.975Z,99553.97
2023-03-26T00:43:46.621Z,99547.09
2023-03-26T00:46:13.256Z,99559.03
2023-03-26T00:48:45.525Z,99560.72
2023-03-26T00:51:15.491Z,99547.13
2023-03-26T00:53:44.477Z,99531.78
2023-03-26T00:56:11.872Z,99538.69
2023-03-26T00:58:38.817Z,99534.44
2023-03-26T01:01:11.226Z,99546.56
2023-03-26T01:03:38.609Z,99544.78
2023-03-26T01:06:12.875Z,99538.75
2023-03-26T01:08:48.305Z,99528.56
2023-03-26T01:11:22.054Z,99525.06
2023-03-26T01:13:52.377Z,99531.13
2023-03-26T01:16:41.663Z,99536.34
2023-03-26T01:19:16.490Z,99535.56
2023-03-26T01:21:43.086Z,99539.78
2023-03-26T01:24:10.598Z,99528.69
2023-03-26T01:26:49.238Z,99523.66
2023-03-26T01:29:44.702Z,99527.88
2023-03-26T01:32:38.068Z,99530.47
2023-03-26T01:35:34.489Z,99531.41
2023-03-26T01:38:23.322Z,99540.72
2023-03-26T01:41:13.700Z,99526.19
2023-03-26T01:43:54.293Z,99533.91
2023-03-26T01:46:23.798Z,99537.34
2023-03-26T01:48:51.699Z,99522.75
2023-03-26T01:51:32.035Z,99509.06
2023-03-26T01:53:59.438Z,99511.63
2023-03-26T01:56:44.985Z,99524.19
2023-03-26T01:59:14.301Z,99521.47
2023-03-26T02:01:55.026Z,99518.94
2023-03-26T02:04:38.440Z,99523.28
2023-03-26T02:07:34.604Z,99516.44
2023-03-26T02:10:11.337Z,99524.41
2023-03-26T02:12:38.123Z,99552.25
2023-03-26T02:15:06.331Z,99552.28
2023-03-26T02:17:33.335Z,99563.09
2023-03-26T02:20:06.402Z,99565.63
2023-03-26T02:22:32.972Z,99575.13
2023-03-26T02:24:59.542Z,99590.38
2023-03-26T02:27:26.363Z,99577.78
2023-03-26T02:29:52.949Z,99580.31
2023-03-26T02:32:20.176Z,99573.53
2023-03-26T02:34:47.377Z,99588.31
2023-03-26T02:37:13.968Z,99583.13
2023-03-26T02:39:40.696Z,99586.56
2023-03-26T02:42:07.652Z,99583.97
2023-03-26T02:44:34.258Z,99594.16
2023-03-26T02:47:00.913Z,99598.56
2023-03-26T02:49:27.546Z,99591.72
2023-03-26T02:51:56.389Z,99603.78
2023-03-26T02:54:23.330Z,99603.00
2023-03-26T02:56:49.927Z,99614.31
2023-03-26T02:59:16.437Z,99617.25
2023-03-26T03:01:43.148Z,99607.00
2023-03-26T03:04:13.033Z,99605.50
2023-03-26T03:06:40.681Z,99608.84
2023-03-26T03:09:11.393Z,99608.91
2023-03-26T03:11:40.961Z,99603.88
2023-03-26T03:14:07.932Z,99604.66
2023-03-26T03:16:34.619Z,99603.84
2023-03-26T03:19:01.953Z,99617.50
2023-03-26T03:21:29.355Z,99597.78
2023-03-26T03:23:56.410Z,99587.44
2023-03-26T03:26:30.132Z,99586.50
2023-03-26T03:28:58.182Z,99595.09
2023-03-26T03:31:26.616Z,99599.31
2023-03-26T03:33:53.327Z,99613.81
2023-03-26T03:36:22.704Z,99618.88
2023-03-26T03:38:50.782Z,99623.09
2023-03-26T03:41:18.788Z,99640.28
2023-03-26T03:43:45.935Z,99638.56
2023-03-26T03:46:12.619Z,99645.38
2023-03-26T03:48:39.264Z,99661.69
2023-03-26T03:51:06.379Z,99679.66
2023-03-26T03:53:37.279Z,99688.22
2023-03-26T03:56:04.802Z,99682.31
2023-03-26T03:58:31.485Z,99684.03
2023-03-26T04:01:04.628Z,99684.94
2023-03-26T04:03:33.264Z,99689.09
2023-03-26T04:06:01.738Z,99689.03
2023-03-26T04:08:28.281Z,99693.38
2023-03-26T04:10:54.924Z,99683.06
2023-03-26T04:13:21.704Z,99694.31
2023-03-26T04:15:48.416Z,99692.56
2023-03-26T04:18:15.090Z,99701.09
2023-03-26T04:20:46.772Z,99705.44
2023-03-26T04:23:14.772Z,99709.72
2023-03-26T04:25:46.781Z,99707.03
2023-03-26T04:28:27.702Z,99707.03
2023-03-26T04:30:57.110Z,99710.59
2023-03-26T04:33:25.006Z,99714.84
2023-03-26T04:35:51.859Z,99706.22
2023-03-26T04:38:18.690Z,99715.69
2023-03-26T04:40:48.500Z,99720.84
2023-03-26T04:43:17.996Z,99717.53
2023-03-26T04:45:48.679Z,99705.47
2023-03-26T04:48:16.003Z,99713.19
2023-03-26T04:50:44.578Z,99716.59
2023-03-26T04:53:17.172Z,99720.03
2023-03-26T04:56:12.714Z,99722.53
2023-03-26T04:58:39.915Z,99731.16
2023-03-26T05:01:10.216Z,99728.59
2023-03-26T05:03:40.787Z,99731.19
2023-03-26T05:06:10.945Z,99720.84
2023-03-26T05:08:37.497Z,99726.88
2023-03-26T05:11:07.434Z,99723.50
2023-03-26T05:13:33.940Z,99724.31
2023-03-26T05:16:00.500Z,99726.03
2023-03-26T05:18:27.062Z,99730.31
2023-03-26T05:20:53.842Z,99738.78
2023-03-26T05:23:20.555Z,99738.00
2023-03-26T05:25:47.728Z,99747.25
2023-03-26T05:28:14.477Z,99741.09
2023-03-26T05:30:43.429Z,99748.81
2023-03-26T05:33:10.732Z,99761.69
2023-03-26T05:35:37.485Z,99758.19
2023-03-26T05:38:04.100Z,99758.06
2023-03-26T05:40:30.642Z,99758.97
2023-03-26T05:42:57.184Z,99782.03
2023-03-26T05:45:23.777Z,99787.06
2023-03-26T05:47:51.461Z,99776.38
2023-03-26T05:50:18.397Z,99785.47
2023-03-26T05:52:44.926Z,99775.22
2023-03-26T05:55:11.811Z,99781.78
2023-03-26T05:57:39.142Z,99775.66
2023-03-26T06:00:08.937Z,99764.47
2023-03-26T06:02:36.112Z,99761.75
2023-03-26T06:05:02.891Z,99779.63
2023-03-26T06:07:29.448Z,99769.72
2023-03-26T06:09:56.378Z,99734.72
2023-03-26T06:12:22.963Z,99655.09
2023-03-26T06:14:49.690Z,99564.88
2023-03-26T06:17:16.348Z,99549.47
2023-03-26T06:19:42.855Z,99547.84
2023-03-26T06:22:09.420Z,99575.19
2023-03-26T06:24:36.004Z,99577.94
2023-03-26T06:27:02.946Z,99593.34
2023-03-26T06:29:29.492Z,99608.78
2023-03-26T06:31:59.577Z,99637.88
2023-03-26T06:34:30.308Z,99638.69
2023-03-26T06:36:56.945Z,99638.25
2023-03-26T06:39:23.473Z,99616.94
2023-03-26T06:41:50.016Z,99686.91
2023-03-26T06:44:16.537Z,99690.66
2023-03-26T06:46:43.150Z,99711.13
2023-03-26T06:49:09.749Z,99736.66
2023-03-26T06:51:37.716Z,99739.13
2023-03-26T06:54:04.453Z,99754.78
2023-03-26T06:56:31.005Z,99796.72
2023-03-26T06:58:57.556Z,99828.59
2023-03-26T07:01:24.161Z,99833.63
2023-03-26T07:03:50.871Z,99830.94
2023-03-26T07:06:17.459Z,99819.22
2023-03-26T07:08:44.162Z,99813.84
2023-03-26T07:11:11.185Z,99833.72
2023-03-26T07:13:39.955Z,99838.13
2023-03-26T07:16:07.323Z,99819.03
2023-03-26T07:18:34.101Z,99819.38
2023-03-26T07:21:01.433Z,99820.16
2023-03-26T07:23:28.250Z,99827.91
2023-03-26T07:25:55.597Z,99826.38
2023-03-26T07:29:04.635Z,99818.34
2023-03-26T07:31:51.395Z,99831.97
2023-03-26T07:34:26.996Z,99822.81
2023-03-26T07:37:08.035Z,99821.03
2023-03-26T07:39:45.006Z,99818.22
2023-03-26T07:42:21.391Z,99820.34
2023-03-26T07:45:10.478Z,99833.91
2023-03-26T07:47:37.633Z,99837.38
2023-03-26T07:50:04.775Z,99843.69
2023-03-26T07:52:31.609Z,99848.16
2023-03-26T07:54:58.405Z,99848.13
2023-03-26T07:57:49.318Z,99852.91
2023-03-26T08:00:25.133Z,99844.13
2023-03-26T08:03:11.844Z,99815.53
2023-03-26T08:05:50.666Z,99819.38
2023-03-26T08:08:29.550Z,99840.03
2023-03-26T08:11:23.719Z,99845.56
2023-03-26T08:13:50.378Z,99834.09
2023-03-26T08:16:25.480Z,99841.84
2023-03-26T08:19:13.854Z,99852.94
2023-03-26T08:21:49.778Z,99836.41
2023-03-26T08:24:22.922Z,99849.53
2023-03-26T08:26:58.444Z,99850.50
2023-03-26T08:29:24.990Z,99851.41
2023-03-26T08:31:51.914Z,99857.63
2023-03-26T08:34:18.566Z,99849.16
2023-03-26T08:36:46.099Z,99840.50
2023-03-26T08:39:13.139Z,99855.09
2023-03-26T08:42:01.237Z,99858.59
2023-03-26T08:44:33.592Z,99864.75
2023-03-26T08:47:21.152Z,99856.63
2023-03-26T08:49:53.587Z,99865.97
2023-03-26T08:52:51.131Z,99869.81
2023-03-26T08:55:39.393Z,99874.03
2023-03-26T08:58:42.967Z,99874.69
2023-03-26T09:01:32.227Z,99883.88
2023-03-26T09:04:20.402Z,99885.09
2023-03-26T09:06:49.673Z,99892.72
2023-03-26T09:09:33.783Z,99893.13
2023-03-26T09:12:12.375Z,99892.34
2023-03-26T09:15:08.555Z,99888.41
2023-03-26T09:18:02.572Z,99866.22
2023-03-26T09:21:00.133Z,99845.03
2023-03-26T09:23:45.022Z,99853.53
2023-03-26T09:26:38.780Z,99841.06
2023-03-26T09:29:33.319Z,99820.31
2023-03-26T09:32:32.123Z,99832.41
2023-03-26T09:35:13.114Z,99827.09
2023-03-26T09:38:01.106Z,99818.03
2023-03-26T09:40:48.583Z,99798.16
2023-03-26T09:43:33.119Z,99775.72
2023-03-26T09:46:18.097Z,99784.41
2023-03-26T09:48:57.303Z,99777.41
2023-03-26T09:51:46.556Z,99759.69
2023-03-26T09:54:57.114Z,99748.69
2023-03-26T09:57:51.312Z,99749.75
2023-03-26T10:00:24.054Z,99759.50
2023-03-26T10:03:03.941Z,99766.84
2023-03-26T10:05:39.100Z,99782.22
2023-03-26T10:08:25.118Z,99778.94
2023-03-26T10:10:59.543Z,99760.59
2023-03-26T10:13:26.237Z,99767.53
2023-03-26T10:16:23.493Z,99762.53
2023-03-26T10:19:08.025Z,99782.88
2023-03-26T10:21:47.778Z,99787.09
2023-03-26T10:24:51.743Z,99773.38
2023-03-26T10:27:53.633Z,99767.00
2023-03-26T10:31:00.388Z,99772.47
2023-03-26T10:34:06.426Z,99771.06
2023-03-26T10:36:39.270Z,99760.53
2023-03-26T10:39:37.111Z,99764.50
2023-03-26T10:42:32.754Z,99771.38
2023-03-26T10:45:24.370Z,99778.69
2023-03-26T10:48:07.656Z,99773.69
2023-03-26T10:51:22.867Z,99794.41
2023-03-26T10:54:00.919Z,99785.28
2023-03-26T10:56:40.454Z,99795.31
2023-03-26T10:59:12.609Z,99801.44
2023-03-26T11:02:00.490Z,99790.19
2023-03-26T11:05:11.609Z,99781.09
2023-03-26T11:07:53.798Z,99813.78
2023-03-26T11:10:29.247Z,99793.47
2023-03-26T11:13:37.984Z,99793.66
2023-03-26T11:16:09.789Z,99800.75
2023-03-26T11:18:48.642Z,99808.28
2023-03-26T11:21:21.242Z,99809.69
2023-03-26T11:24:04.665Z,99815.31
2023-03-26T11:26:41.091Z,99803.00
2023-03-26T11:29:40.800Z,99794.06
2023-03-26T11:32:22.553Z,99797.50
2023-03-26T11:35:04.288Z,99793.97
2023-03-26T11:37:41.672Z,99803.28
2023-03-26T11:40:24.413Z,99811.03
2023-03-26T11:43:03.778Z,99820.16
2023-03-26T11:45:38.421Z,99818.41
2023-03-26T11:48:29.032Z,99801.50
2023-03-26T11:51:02.779Z,99812.94
2023-03-26T11:53:34.889Z,99782.91
2023-03-26T11:56:08.919Z,99772.13
2023-03-26T11:58:54.588Z,99772.53
2023-03-26T12:01:44.304Z,99777.66
2023-03-26T12:04:14.693Z,99773.47
2023-03-26T12:07:09.487Z,99760.72
2023-03-26T12:09:36.111Z,99775.44
2023-03-26T12:12:04.340Z,99760.78
2023-03-26T12:14:34.604Z,99749.63
2023-03-26T12:17:07.722Z,99744.59
2023-03-26T12:19:45.304Z,99738.84
2023-03-26T12:22:29.711Z,99741.38
2023-03-26T12:25:16.581Z,99748.16
2023-03-26T12:27:49.923Z,99735.22
2023-03-26T12:30:51.842Z,99736.84
2023-03-26T12:33:34.229Z,99737.91
2023-03-26T12:36:19.618Z,99720.75
2023-03-26T12:38:46.517Z,99719.06
2023-03-26T12:44:51.312Z,99728.50
2023-03-26T12:44:54.653Z,99728.53
2023-03-26T12:48:00.391Z,99703.75
2023-03-26T12:50:14.569Z,99708.63
2023-03-26T12:52:56.407Z,99718.88
2023-03-26T12:55:38.246Z,99700.94
2023-03-26T12:58:41.296Z,99702.69
2023-03-26T13:01:33.274Z,99688.94
2023-03-26T13:04:24.411Z,99689.03
2023-03-26T13:07:41.753Z,99667.63
2023-03-26T13:10:20.103Z,99683.22
2023-03-26T13:12:58.149Z,99679.03
2023-03-26T13:15:33.625Z,99678.03
2023-03-26T13:18:19.721Z,99674.66
2023-03-26T13:20:51.464Z,99671.06
2023-03-26T13:23:48.797Z,99695.72
2023-03-26T13:26:43.013Z,99708.66
2023-03-26T13:29:37.336Z,99700.00
2023-03-26T13:32:32.949Z,99698.16
2023-03-26T13:35:08.618Z,99700.75
2023-03-26T13:37:41.894Z,99691.25
2023-03-26T13:40:29.679Z,99707.09
2023-03-26T13:43:24.466Z,99689.63
2023-03-26T13:46:21.703Z,99698.19
2023-03-26T13:49:01.877Z,99700.75
2023-03-26T13:52:02.903Z,99705.16
2023-03-26T13:54:51.630Z,99697.00
2023-03-26T13:57:24.852Z,99707.34
2023-03-26T13:59:59.483Z,99708.84
2023-03-26T14:02:36.306Z,99747.75
2023-03-26T14:05:12.420Z,99771.88
2023-03-26T14:07:48.916Z,99714.00
2023-03-26T14:10:18.857Z,99720.13
2023-03-26T14:12:57.544Z,99686.25
2023-03-26T14:15:31.384Z,99638.66
2023-03-26T14:18:16.228Z,99639.59
2023-03-26T14:20:48.564Z,99598.94
2023-03-26T14:23:30.491Z,99653.28
2023-03-26T14:26:44.563Z,99686.19
2023-03-26T14:29:28.830Z,99683.13
2023-03-26T14:32:03.564Z,99702.28
2023-03-26T14:34:45.427Z,99684.53
2023-03-26T14:37:33.769Z,99676.28
2023-03-26T14:40:31.949Z,99676.59
2023-03-26T14:43:13.451Z,99670.78
2023-03-26T14:46:07.927Z,99683.16
2023-03-26T14:48:37.271Z,99665.31
2023-03-26T14:52:02.781Z,99674.16
2023-03-26T14:54:33.723Z,99693.97
2023-03-26T14:57:31.888Z,99688.06
2023-03-26T15:00:20.926Z,99660.56
2023-03-26T15:03:25.998Z,99671.78
2023-03-26T15:06:33.815Z,99669.19
2023-03-26T15:09:25.890Z,99676.97
2023-03-26T15:12:14.660Z,99687.41
2023-03-26T15:15:07.346Z,99697.88
2023-03-26T15:17:45.748Z,99679.00
2023-03-26T15:20:51.703Z,99704.50
2023-03-26T15:23:49.889Z,99663.06
2023-03-26T15:26:53.635Z,99659.91
2023-03-26T15:29:50.263Z,99640.91
2023-03-26T15:32:35.717Z,99594.91
2023-03-26T15:35:09.707Z,99629.22
2023-03-26T15:38:09.103Z,99629.25
2023-03-26T15:40:40.469Z,99631.84
2023-03-26T15:43:22.589Z,99628.41
2023-03-26T15:46:26.553Z,99632.91
2023-03-26T15:49:19.813Z,99627.66
2023-03-26T15:51:59.419Z,99603.72
2023-03-26T15:54:53.015Z,99616.63
2023-03-26T15:57:32.508Z,99656.66
2023-03-26T16:00:23.142Z,99659.66
2023-03-26T16:03:11.619Z,99636.56
2023-03-26T16:06:03.713Z,99674.25
2023-03-26T16:08:46.796Z,99619.53
2023-03-26T16:11:13.897Z,99616.22
2023-03-26T16:13:50.657Z,99598.03
2023-03-26T16:16:23.726Z,99598.91
2023-03-26T16:19:00.131Z,99609.25
2023-03-26T16:21:39.366Z,99600.63
2023-03-26T16:24:05.855Z,99587.72
2023-03-26T16:26:44.674Z,99596.34
2023-03-26T16:29:14.546Z,99607.88
2023-03-26T16:31:57.935Z,99606.03
2023-03-26T16:34:48.992Z,99608.72
2023-03-26T16:37:35.691Z,99585.84
2023-03-26T16:40:17.744Z,99571.31
2023-03-26T16:43:11.390Z,99556.47
2023-03-26T16:46:04.093Z,99572.78
2023-03-26T16:49:12.162Z,99585.19
2023-03-26T16:51:39.862Z,99612.31
2023-03-26T16:54:25.714Z,99648.66
2023-03-26T16:57:28.948Z,99628.66
2023-03-26T17:00:08.000Z,99612.22
2023-03-26T17:02:43.539Z,99586.94
2023-03-26T17:05:19.231Z,99633.09
2023-03-26T17:07:56.628Z,99587.75
2023-03-26T17:10:35.169Z,99591.28
2023-03-26T17:13:16.619Z,99594.25
2023-03-26T17:16:09.557Z,99597.34
2023-03-26T17:18:44.639Z,99634.19
2023-03-26T17:21:24.721Z,99627.53
2023-03-26T17:24:15.151Z,99604.91
2023-03-26T17:27:23.858Z,99594.31
2023-03-26T17:30:07.747Z,99587.28
2023-03-26T17:33:06.483Z,99593.78
2023-03-26T17:35:43.291Z,99601.50
2023-03-26T17:38:29.796Z,99590.41
2023-03-26T17:40:59.334Z,99614.09
2023-03-26T17:43:36.020Z,99634.34
2023-03-26T17:46:10.345Z,99593.81
2023-03-26T17:48:40.904Z,99599.72
2023-03-26T17:51:33.610Z,99596.28
2023-03-26T17:54:00.576Z,99616.75
2023-03-26T17:56:32.178Z,99627.94
2023-03-26T17:59:12.288Z,99621.66
2023-03-26T18:01:42.334Z,99634.53
2023-03-26T18:04:18.737Z,99626.78
2023-03-26T18:07:17.203Z,99626.84
2023-03-26T18:10:17.758Z,99647.44
2023-03-26T18:13:09.717Z,99633.69
2023-03-26T18:15:36.242Z,99633.66
2023-03-26T18:18:18.050Z,99627.75
2023-03-26T18:20:47.760Z,99648.25
2023-03-26T18:23:25.189Z,99641.28
2023-03-26T18:26:12.464Z,99642.16
2023-03-26T18:28:48.826Z,99650.34
2023-03-26T18:31:20.500Z,99625.63
2023-03-26T18:33:50.586Z,99638.13
2023-03-26T18:36:18.595Z,99593.13
2023-03-26T18:38:46.810Z,99496.41
2023-03-26T18:41:30.531Z,99419.28
2023-03-26T18:44:02.960Z,99379.53
2023-03-26T18:46:30.220Z,99340.78
2023-03-26T18:48:58.759Z,99307.31
2023-03-26T18:51:26.888Z,99270.47
2023-03-26T18:53:57.593Z,99256.72
2023-03-26T18:56:28.170Z,99254.88
2023-03-26T18:58:58.254Z,99260.03
2023-03-26T19:01:31.751Z,99276.13
2023-03-26T19:04:03.658Z,99259.03
2023-03-26T19:06:38.340Z,99267.56
2023-03-26T19:09:16.309Z,99280.50
2023-03-26T19:11:49.637Z,99276.31
2023-03-26T19:14:18.330Z,99261.84
2023-03-26T19:16:50.497Z,99277.22
2023-03-26T19:19:23.023Z,99268.78
2023-03-26T19:21:51.070Z,99273.94
2023-03-26T19:24:19.621Z,99314.38
2023-03-26T19:26:47.706Z,99303.19
2023-03-26T19:29:23.924Z,99356.22
2023-03-26T19:31:52.725Z,99394.75
2023-03-26T19:34:31.777Z,99451.19
2023-03-26T19:37:01.452Z,99467.34
2023-03-26T19:39:42.657Z,99446.84
2023-03-26T19:42:16.214Z,99435.75
2023-03-26T19:44:43.382Z,99438.38
2023-03-26T19:47:35.346Z,99435.75
2023-03-26T19:50:26.027Z,99438.28
2023-03-26T19:53:17.041Z,99449.53
2023-03-26T19:56:15.325Z,99477.63
2023-03-26T19:58:42.866Z,99469.78
2023-03-26T20:01:21.017Z,99457.69
2023-03-26T20:03:50.703Z,99458.63
2023-03-26T20:06:23.701Z,99462.88
2023-03-26T20:08:55.133Z,99492.03
2023-03-26T20:11:34.189Z,99525.41
2023-03-26T20:14:01.511Z,99573.31
2023-03-26T20:16:30.451Z,99606.63
2023-03-26T20:18:58.418Z,99636.63
2023-03-26T20:21:26.299Z,99660.59
2023-03-26T20:23:53.681Z,99682.91
2023-03-26T20:26:22.571Z,99709.41
2023-03-26T20:28:53.542Z,99731.53
2023-03-26T20:31:26.740Z,99730.69
2023-03-26T20:33:54.640Z,99723.88
2023-03-26T20:36:34.288Z,99717.81
2023-03-26T20:39:08.508Z,99696.41
2023-03-26T20:41:38.258Z,99688.56
2023-03-26T20:44:15.815Z,99662.88
2023-03-26T20:46:43.965Z,99648.38
2023-03-26T20:49:11.441Z,99692.03
2023-03-26T20:51:39.331Z,99672.38
2023-03-26T20:54:09.121Z,99689.56
2023-03-26T20:56:37.900Z,99687.63
2023-03-26T20:59:10.914Z,99655.53
2023-03-26T21:01:38.695Z,99616.84
2023-03-26T21:04:06.367Z,99545.47
2023-03-26T21:06:32.981Z,99504.94
2023-03-26T21:08:59.886Z,99485.16
2023-03-26T21:11:44.742Z,99475.69
2023-03-26T21:14:21.207Z,99472.50
2023-03-26T21:16:48.401Z,99478.81
2023-03-26T21:19:15.851Z,99487.00
2023-03-26T21:22:00.903Z,99477.22
2023-03-26T21:24:45.933Z,99456.88
2023-03-26T21:28:08.126Z,99447.75
2023-03-26T21:30:35.414Z,99457.97
2023-03-26T21:33:02.433Z,99439.47
2023-03-26T21:35:29.370Z,99445.47
2023-03-26T21:37:57.642Z,99442.25
2023-03-26T21:40:24.377Z,99439.81
2023-03-26T21:42:52.573Z,99449.13
2023-03-26T21:45:19.869Z,99453.38
2023-03-26T21:47:46.992Z,99458.44
2023-03-26T21:50:16.910Z,99463.53
2023-03-26T21:52:49.751Z,99462.94
2023-03-26T21:55:17.925Z,99448.28
2023-03-26T21:57:58.647Z,99452.81
2023-03-26T22:00:41.153Z,99463.19
2023-03-26T22:03:58.165Z,99453.81
2023-03-26T22:06:32.074Z,99460.75
2023-03-26T22:08:59.686Z,99466.75
2023-03-26T22:11:26.310Z,99470.97
2023-03-26T22:13:53.303Z,99465.84
2023-03-26T22:16:25.087Z,99467.50
2023-03-26T22:18:53.624Z,99478.44
2023-03-26T22:21:20.508Z,99455.38
2023-03-26T22:23:52.714Z,99479.38
2023-03-26T22:26:21.936Z,99493.72
2023-03-26T22:28:49.397Z,99485.22
2023-03-26T22:31:16.797Z,99502.03
2023-03-26T22:33:43.803Z,99513.09
2023-03-26T22:36:23.135Z,99529.22
2023-03-26T22:38:53.775Z,99526.72
2023-03-26T22:41:21.575Z,99551.25
2023-03-26T22:43:48.154Z,99548.44
2023-03-26T22:46:15.788Z,99552.69
2023-03-26T22:48:42.336Z,99556.97
2023-03-26T22:51:09.438Z,99578.25
2023-03-26T22:53:36.121Z,99573.97
2023-03-26T22:56:04.076Z,99575.53
2023-03-26T22:58:30.755Z,99584.13
2023-03-26T23:01:24.130Z,99602.97
2023-03-26T23:03:50.987Z,99607.16
2023-03-26T23:06:17.726Z,99606.13
2023-03-26T23:08:44.432Z,99612.25
2023-03-26T23:11:19.150Z,99612.22
2023-03-26T23:13:47.817Z,99610.47
2023-03-26T23:16:16.557Z,99611.34
2023-03-26T23:18:43.340Z,99609.66
2023-03-26T23:21:21.200Z,99612.25
2023-03-26T23:23:49.390Z,99612.22
2023-03-26T23:26:16.547Z,99614.91
2023-03-26T23:28:43.523Z,99615.78
2023-03-26T23:31:12.242Z,99627.69
2023-03-26T23:33:46.107Z,99632.03
2023-03-26T23:36:17.797Z,99635.41
2023-03-26T23:38:49.052Z,99638.00
2023-03-26T23:41:21.758Z,99640.59
2023-03-26T23:43:56.095Z,99645.66
2023-03-26T23:46:24.844Z,99659.38
2023-03-26T23:48:52.268Z,99666.06
2023-03-26T23:51:20.284Z,99659.13
2023-03-26T23:53:49.674Z,99664.44
2023-03-26T23:56:16.996Z,99662.75
2023-03-26T23:58:44.018Z,99677.91
